Time;durP1;ratioP1;P1;durP2;ratioP2;P2;SDS_P1;SDS_P2;PMS_P1;PMS_P2;Temp;Humidity;BMP_temperature;BMP_pressure;BME280_temperature;BME280_humidity;BME280_pressure;Samples;Min_cycle;Max_cycle;Signal;HPM_P1;HPM_P2
2022/06/02 00:01:47;;;;;;;1999.90;999.90;;;;;;;20.44;54.21;95432.38;4991707;28;20089;-70
2022/06/02 00:04:25;;;;;;;1999.90;999.90;;;;;;;20.37;53.98;95430.34;4915585;29;20199;-71
2022/06/02 00:07:02;;;;;;;1999.90;999.90;;;;;;;20.27;54.16;95436.34;4931112;28;20044;-70
2022/06/02 00:09:57;;;;;;;1999.90;999.90;;;;;;;19.99;54.51;95414.97;4956796;28;20053;-70
2022/06/02 00:12:55;;;;;;;1999.90;999.90;;;;;;;20.03;54.80;95448.25;4972404;28;20437;-70
2022/06/02 00:15:25;;;;;;;1999.90;999.90;;;;;;;19.90;54.93;95439.50;4972354;28;20125;-70
2022/06/02 00:18:03;;;;;;;1999.90;999.90;;;;;;;19.88;55.04;95446.41;4984374;28;20037;-70
2022/06/02 00:20:50;;;;;;;1999.90;999.90;;;;;;;19.64;55.26;95437.44;4991237;28;20426;-70
2022/06/02 00:23:27;;;;;;;1999.90;999.90;;;;;;;19.61;55.91;95451.66;4990254;28;20499;-70
2022/06/02 00:26:15;;;;;;;1999.90;999.90;;;;;;;19.45;55.99;95440.88;4991446;28;20146;-70
2022/06/02 00:29:03;;;;;;;1999.90;999.90;;;;;;;19.31;55.95;95439.78;4989023;28;20030;-70
2022/06/02 00:31:45;;;;;;;1999.90;999.90;;;;;;;19.36;55.95;95479.97;4991824;28;20034;-71
2022/06/02 00:34:19;;;;;;;1999.90;999.90;;;;;;;19.27;56.25;95471.28;4990073;28;20041;-70
2022/06/02 00:37:19;;;;;;;1999.90;999.90;;;;;;;19.25;56.38;95476.25;4990667;28;20034;-70
2022/06/02 00:39:48;;;;;;;1999.90;999.90;;;;;;;19.23;56.72;95488.16;4990792;28;20030;-71
2022/06/02 00:42:47;;;;;;;1999.90;999.90;;;;;;;19.20;56.76;95483.47;4990863;28;20151;-70
2022/06/02 00:45:15;;;;;;;1999.90;999.90;;;;;;;19.16;56.74;95485.31;4989599;28;20105;-70
2022/06/02 00:47:46;;;;;;;1999.90;999.90;;;;;;;19.11;56.87;95474.78;4990074;28;20034;-71
2022/06/02 00:50:32;;;;;;;1999.90;999.90;;;;;;;19.08;57.04;95474.69;4990591;28;20482;-70
2022/06/02 00:53:19;;;;;;;1999.90;999.90;;;;;;;19.05;56.94;95484.28;4990958;28;20172;-70
2022/06/02 00:58:43;;;;;;;1999.90;999.90;;;;;;;18.79;57.32;95462.47;4990525;28;20125;-70
2022/06/02 01:01:12;;;;;;;1999.90;999.90;;;;;;;18.86;57.22;95476.91;4989545;28;20037;-70
2022/06/02 01:03:40;;;;;;;1999.90;999.90;;;;;;;18.87;57.42;95496.53;4990391;28;20026;-69
2022/06/02 01:06:41;;;;;;;1999.90;999.90;;;;;;;18.63;57.70;95468.63;4991092;28;20089;-70
2022/06/02 01:09:10;;;;;;;1999.90;999.90;;;;;;;18.79;57.90;95498.28;4990772;28;20109;-69
2022/06/02 01:11:54;;;;;;;1999.90;999.90;;;;;;;18.55;57.96;95469.56;4990616;28;20101;-69
2022/06/02 01:14:44;;;;;;;1999.90;999.90;;;;;;;18.66;57.97;95494.06;4971583;28;20472;-69
2022/06/02 01:17:28;;;;;;;1999.90;999.90;;;;;;;18.68;58.04;95506.13;4973250;28;20364;-69
2022/06/02 01:19:59;;;;;;;1999.90;999.90;;;;;;;18.68;58.18;95506.13;4988975;28;20386;-70
2022/06/02 01:22:43;;;;;;;1999.90;999.90;;;;;;;18.63;58.21;95497.44;4989751;28;20169;-70
2022/06/02 01:25:17;;;;;;;1999.90;999.90;;;;;;;18.66;58.47;95502.16;4990707;28;20532;-69
2022/06/02 01:27:51;;;;;;;1999.90;999.90;;;;;;;18.65;58.78;95501.38;4990752;28;20109;-70
2022/06/02 01:30:39;;;;;;;1999.90;999.90;;;;;;;18.55;58.76;95493.03;4990155;28;20023;-70
2022/06/02 01:33:12;;;;;;;1999.90;999.90;;;;;;;18.62;58.96;95510.13;4988824;28;20472;-70
2022/06/02 01:35:49;;;;;;;1999.90;999.90;;;;;;;18.38;59.32;95469.91;4990730;28;20034;-69
2022/06/02 01:38:54;;;;;;;1999.90;999.90;;;;;;;18.69;59.18;95504.97;4990002;28;20022;-69
2022/06/02 01:41:44;;;;;;;1999.90;999.90;;;;;;;18.75;59.10;95500.13;4975914;28;20125;-70
2022/06/02 01:44:24;;;;;;;1999.90;999.90;;;;;;;18.85;59.07;95493.44;4990453;28;20038;-70
2022/06/02 01:47:16;;;;;;;1999.90;999.90;;;;;;;18.59;58.94;95454.28;4989200;28;20117;-69
2022/06/02 01:50:15;;;;;;;1999.90;999.90;;;;;;;18.92;58.55;95472.81;4954531;28;20394;-70
2022/06/02 01:53:12;;;;;;;1999.90;999.90;;;;;;;19.10;58.55;95486.72;4989654;28;20030;-69
2022/06/02 01:56:19;;;;;;;1999.90;999.90;;;;;;;18.91;58.47;95457.75;4990392;28;20042;-69
2022/06/02 01:58:57;;;;;;;1999.90;999.90;;;;;;;18.84;57.95;95452.22;4978005;28;20447;-69
2022/06/02 02:01:32;;;;;;;1999.90;999.90;;;;;;;19.08;58.13;95482.78;4990451;28;20026;-69
2022/06/02 02:04:23;;;;;;;1999.90;999.90;;;;;;;18.99;58.06;95485.69;4989737;28;20030;-69
2022/06/02 02:07:03;;;;;;;1999.90;999.90;;;;;;;18.87;58.25;95481.16;4990385;28;20031;-69
2022/06/02 02:09:40;;;;;;;1999.90;999.90;;;;;;;18.93;58.37;95487.06;4989991;28;20050;-69
2022/06/02 02:12:17;;;;;;;1999.90;999.90;;;;;;;18.88;58.57;95476.53;4988182;28;20041;-69
2022/06/02 02:15:01;;;;;;;1999.90;999.90;;;;;;;19.01;58.59;95488.81;4990416;28;20030;-69
2022/06/02 02:17:49;;;;;;;1999.90;999.90;;;;;;;18.94;58.27;95469.78;4989475;28;20469;-69
2022/06/02 02:20:27;;;;;;;1999.90;999.90;;;;;;;18.99;58.04;95477.59;4989479;28;20018;-69
2022/06/02 02:23:01;;;;;;;1999.90;999.90;;;;;;;18.78;57.89;95460.91;4989360;28;20033;-70
2022/06/02 02:25:31;;;;;;;1999.90;999.90;;;;;;;19.04;57.89;95501.59;4989994;28;20105;-70
2022/06/02 02:28:19;;;;;;;1999.90;999.90;;;;;;;18.96;57.99;95478.28;4988618;28;20039;-69
2022/06/02 02:30:44;;;;;;;1999.90;999.90;;;;;;;19.13;57.75;95494.09;4993862;28;20527;-69
2022/06/02 02:33:37;;;;;;;1999.90;999.90;;;;;;;19.14;57.26;95501.06;4992388;28;20102;-69
2022/06/02 02:36:08;;;;;;;1999.90;999.90;;;;;;;19.08;57.16;95491.66;4991754;28;20030;-69
2022/06/02 02:38:48;;;;;;;1999.90;999.90;;;;;;;18.90;57.25;95477.00;4993171;28;20026;-69
2022/06/02 02:41:28;;;;;;;1999.90;999.90;;;;;;;19.00;57.39;95498.03;4992359;28;20042;-69
2022/06/02 02:44:11;;;;;;;1999.90;999.90;;;;;;;19.00;57.42;95489.16;4993065;28;20387;-70
2022/06/02 02:46:47;;;;;;;1999.90;999.90;;;;;;;19.00;57.01;95499.94;4993678;28;20590;-69
2022/06/02 02:49:21;;;;;;;1999.90;999.90;;;;;;;19.00;57.50;95489.16;4992446;28;20038;-69
2022/06/02 02:52:01;;;;;;;1999.90;999.90;;;;;;;18.96;57.56;95497.16;4992706;28;20510;-69
2022/06/02 02:54:44;;;;;;;1999.90;999.90;;;;;;;18.94;57.58;95500.22;4993334;28;20027;-69
2022/06/02 02:57:15;;;;;;;1999.90;999.90;;;;;;;18.76;57.64;95500.88;4992262;28;20027;-69
2022/06/02 02:59:40;;;;;;;1999.90;999.90;;;;;;;18.69;58.12;95507.66;4992919;28;20031;-69
2022/06/02 03:02:40;;;;;;;1999.90;999.90;;;;;;;18.12;58.07;95419.22;5007078;28;20472;-69
2022/06/02 03:05:15;;;;;;;1999.90;999.90;;;;;;;18.61;58.02;95505.88;4953540;28;20034;-69
2022/06/02 03:07:40;;;;;;;1999.90;999.90;;;;;;;18.33;58.28;95459.38;4973821;28;20114;-70
2022/06/02 03:10:21;;;;;;;1999.90;999.90;;;;;;;18.34;58.06;95466.31;4974084;28;20535;-70
2022/06/02 03:12:46;;;;;;;1999.90;999.90;;;;;;;18.61;58.20;95500.50;4991716;28;20027;-71
2022/06/02 03:15:42;;;;;;;1999.90;999.90;;;;;;;18.59;58.08;95507.38;4991774;28;20434;-70
2022/06/02 03:18:24;;;;;;;1999.90;999.90;;;;;;;18.58;58.33;95503.09;4990921;28;20054;-70
2022/06/02 03:21:15;;;;;;;1999.90;999.90;;;;;;;18.49;58.38;95495.19;4991472;28;20030;-70
2022/06/02 03:24:04;;;;;;;1999.90;999.90;;;;;;;18.31;58.41;95461.63;4992827;28;20118;-70
2022/06/02 03:26:57;;;;;;;1999.90;999.90;;;;;;;18.65;58.29;95511.38;4970958;28;20037;-70
2022/06/02 03:29:38;;;;;;;1999.90;999.90;;;;;;;18.59;58.45;95510.84;4992257;28;20030;-70
2022/06/02 03:32:26;;;;;;;1999.90;999.90;;;;;;;18.20;58.71;95453.25;4992582;28;20156;-70
2022/06/02 03:35:16;;;;;;;1999.90;999.90;;;;;;;18.61;58.73;95519.34;4990947;28;20053;-70
2022/06/02 03:38:06;;;;;;;1999.90;999.90;;;;;;;18.60;58.81;95509.72;4991233;28;20093;-70
2022/06/02 03:40:55;;;;;;;1999.90;999.90;;;;;;;18.51;58.72;95487.53;4991307;28;20125;-70
2022/06/02 03:43:59;;;;;;;1999.90;999.90;;;;;;;18.75;58.70;95508.19;4990143;28;20022;-70
2022/06/02 03:46:54;;;;;;;1999.90;999.90;;;;;;;18.86;58.33;95516.53;4992402;28;20026;-71
2022/06/02 03:49:46;;;;;;;1999.90;999.90;;;;;;;18.96;58.30;95518.72;4972689;28;20042;-70
2022/06/02 03:52:51;;;;;;;1999.90;999.90;;;;;;;18.95;58.03;95509.84;4992390;28;20022;-70
2022/06/02 03:55:24;;;;;;;1999.90;999.90;;;;;;;19.08;57.88;95490.88;4991834;28;20034;-70
2022/06/02 03:57:53;;;;;;;1999.90;999.90;;;;;;;19.60;57.58;95524.84;4992092;28;20038;-70
2022/06/02 04:00:36;;;;;;;1999.90;999.90;;;;;;;19.74;56.76;95512.44;4991489;28;20026;-70
2022/06/02 04:03:06;;;;;;;1999.90;999.90;;;;;;;20.23;55.84;95524.63;4990923;28;20026;-70
2022/06/02 04:05:43;;;;;;;1999.90;999.90;;;;;;;20.34;55.25;95498.59;4982877;28;20030;-70
2022/06/02 04:08:30;;;;;;;1999.90;999.90;;;;;;;20.59;54.80;95528.03;4991259;28;20022;-70
2022/06/02 04:11:04;;;;;;;1999.90;999.90;;;;;;;20.65;54.26;95530.09;4991583;28;20467;-71
2022/06/02 04:13:48;;;;;;;1999.90;999.90;;;;;;;20.71;54.38;95527.84;4990531;28;20454;-70
2022/06/02 04:16:40;;;;;;;1999.90;999.90;;;;;;;20.82;54.08;95528.81;4990806;28;20458;-71
2022/06/02 04:22:29;;;;;;;1999.90;999.90;;;;;;;20.98;53.49;95531.41;4991597;28;20034;-71
2022/06/02 04:25:10;;;;;;;1999.90;999.90;;;;;;;21.06;53.22;95540.44;4990887;28;20022;-71
2022/06/02 04:27:52;;;;;;;1999.90;999.90;;;;;;;21.09;52.81;95526.19;4990107;28;20118;-70
2022/06/02 04:30:30;;;;;;;1999.90;999.90;;;;;;;21.26;52.76;95539.22;4991027;28;20049;-71
2022/06/02 04:33:14;;;;;;;1999.90;999.90;;;;;;;21.36;52.49;95543.28;4989303;28;20096;-70
2022/06/02 04:36:01;;;;;;;1999.90;999.90;;;;;;;21.31;51.80;95532.75;4990602;28;20108;-71
2022/06/02 04:38:38;;;;;;;1999.90;999.90;;;;;;;21.35;51.73;95542.50;4990875;28;20034;-70
2022/06/02 04:41:39;;;;;;;1999.90;999.90;;;;;;;21.40;51.91;95563.84;4991274;28;20467;-71
2022/06/02 04:44:21;;;;;;;1999.90;999.90;;;;;;;21.11;51.79;95565.25;4971992;28;20512;-70
2022/06/02 04:47:06;;;;;;;1999.90;999.90;;;;;;;20.65;52.81;95559.81;4970334;28;20026;-71
2022/06/02 04:49:58;;;;;;;1999.90;999.90;;;;;;;20.53;53.50;95554.56;4977653;28;20032;-70
2022/06/02 04:52:31;;;;;;;;;;;;;;;20.63;53.47;95554.00;4991044;28;20088;-71
2022/06/02 04:55:40;;;;;;;1999.90;999.90;;;;;;;21.13;53.03;95545.94;4989733;28;19914;-70
2022/06/02 04:58:21;;;;;;;1999.90;999.90;;;;;;;21.51;52.06;95556.66;4989964;28;20057;-70
2022/06/02 05:01:12;;;;;;;1999.90;999.90;;;;;;;20.77;52.60;95561.56;4990649;28;20030;-70
2022/06/02 05:03:41;;;;;;;1999.90;999.90;;;;;;;21.16;51.80;95558.78;4990390;28;20034;-71
2022/06/02 05:06:32;;;;;;;1999.90;999.90;;;;;;;20.48;51.97;95498.13;4989746;28;20041;-70
2022/06/02 05:09:22;;;;;;;1999.90;999.90;;;;;;;21.31;50.92;95562.53;4990132;28;20034;-71
2022/06/02 05:12:26;;;;;;;1999.90;999.90;;;;;;;21.74;50.23;95564.72;5005596;28;20033;-71
2022/06/02 05:15:22;;;;;;;1999.90;999.90;;;;;;;21.21;50.64;95566.59;4988567;28;20053;-71
2022/06/02 05:18:01;;;;;;;1999.90;999.90;;;;;;;20.11;53.05;95574.16;4989276;28;20113;-72
2022/06/02 05:20:26;;;;;;;1999.90;999.90;;;;;;;21.09;51.00;95574.84;4989062;28;20546;-71
2022/06/02 05:23:07;;;;;;;1999.90;999.90;;;;;;;20.54;53.10;95580.47;4990762;28;20038;-71
2022/06/02 05:25:38;;;;;;;1999.90;999.90;;;;;;;21.19;50.87;95569.66;5005421;28;20307;-69
2022/06/02 05:28:31;;;;;;;1999.90;999.90;;;;;;;21.79;50.22;95561.69;5005608;28;20383;-66
2022/06/02 05:31:30;;;;;;;1999.90;999.90;;;;;;;21.44;49.91;95556.53;4988068;28;20042;-67
2022/06/02 05:34:24;;;;;;;1999.90;999.90;;;;;;;21.34;50.66;95580.72;5002153;28;20079;-66
2022/06/02 05:37:09;;;;;;;1999.90;999.90;;;;;;;20.41;52.89;95587.09;4976000;28;20038;-73
2022/06/02 05:39:44;;;;;;;1999.90;999.90;;;;;;;20.11;53.76;95594.97;5009650;28;20053;-69
2022/06/02 05:42:20;;;;;;;1999.90;999.90;;;;;;;20.32;53.12;95595.44;4991392;28;20077;-68
2022/06/02 05:44:57;;;;;;;1999.90;999.90;;;;;;;21.67;50.34;95597.13;4990492;28;20092;-67
2022/06/02 05:48:09;;;;;;;1999.90;999.90;;;;;;;21.79;49.02;95548.16;4999455;28;20037;-68
2022/06/02 05:50:59;;;;;;;1999.90;999.90;;;;;;;22.12;48.81;95584.63;4976744;28;20511;-66
2022/06/02 05:53:47;;;;;;;1999.90;999.90;;;;;;;21.31;49.86;95557.09;4995547;28;20026;-65
2022/06/02 05:56:31;;;;;;;1999.90;999.90;;;;;;;20.84;51.11;95587.97;5005932;28;20041;-65
2022/06/02 05:59:18;;;;;;;1999.90;999.90;;;;;;;20.91;51.26;95605.09;5000958;28;20079;-64
2022/06/02 06:02:25;;;;;;;1999.90;999.90;;;;;;;21.15;50.42;95603.19;5001955;28;20113;-68
2022/06/02 06:05:05;;;;;;;1999.90;999.90;;;;;;;21.65;49.60;95590.47;5003545;28;20475;-65
2022/06/02 06:07:50;;;;;;;1999.90;999.90;;;;;;;21.92;48.24;95580.44;5007257;28;20133;-70
2022/06/02 06:10:46;;;;;;;1999.90;999.90;;;;;;;22.35;47.02;95573.69;5008114;28;20057;-67
2022/06/02 06:13:24;;;;;;;1999.90;999.90;;;;;;;22.60;46.92;95573.97;4983608;28;20030;-68
2022/06/02 06:16:05;;;;;;;1999.90;999.90;;;;;;;22.31;46.84;95583.69;5005135;28;20493;-66
2022/06/02 06:18:45;;;;;;;1999.90;999.90;;;;;;;22.49;47.15;95573.84;4975790;28;20027;-66
2022/06/02 06:21:32;;;;;;;1999.90;999.90;;;;;;;22.78;46.62;95583.09;4992181;28;20030;-67
2022/06/02 06:24:34;;;;;;;1999.90;999.90;;;;;;;22.82;46.66;95589.31;4994411;28;20053;-68
2022/06/02 06:27:08;;;;;;;1999.90;999.90;;;;;;;23.29;45.37;95590.59;4987983;28;20037;-68
2022/06/02 06:29:52;;;;;;;1999.90;999.90;;;;;;;22.79;46.06;95590.06;5011185;28;20432;-69
2022/06/02 06:32:38;;;;;;;1999.90;999.90;;;;;;;22.96;45.60;95568.94;5002199;28;20026;-69
2022/06/02 06:35:37;;;;;;;1999.90;999.90;;;;;;;22.28;46.93;95601.47;4999414;28;20038;-69
2022/06/02 06:38:22;;;;;;;1999.90;999.90;;;;;;;22.94;46.62;95601.09;4988836;28;20581;-69
2022/06/02 06:41:26;;;;;;;1999.90;999.90;;;;;;;23.50;45.13;95606.28;5003324;28;20062;-70
2022/06/02 06:43:57;;;;;;;1999.90;999.90;;;;;;;23.97;43.42;95612.84;4980779;28;20113;-70
2022/06/02 06:46:25;;;;;;;1999.90;999.90;;;;;;;23.46;44.51;95596.53;5008202;28;20118;-70
2022/06/02 06:49:11;;;;;;;1999.90;999.90;;;;;;;23.65;44.30;95607.19;4993494;28;20037;-69
2022/06/02 06:52:10;;;;;;;1999.90;999.90;;;;;;;23.78;43.98;95615.81;4996173;28;20038;-72
2022/06/02 06:55:11;;;;;;;1999.90;999.90;;;;;;;23.90;43.70;95598.41;4999366;28;20040;-70
2022/06/02 06:57:50;;;;;;;1999.90;999.90;;;;;;;22.73;45.82;95601.63;5007055;28;20030;-68
2022/06/02 07:00:28;;;;;;;1999.90;999.90;;;;;;;23.04;45.34;95603.16;4992242;28;20076;-70
2022/06/02 07:03:03;;;;;;;1999.90;999.90;;;;;;;23.28;44.98;95616.16;4991793;28;20041;-67
2022/06/02 07:05:36;;;;;;;1999.90;999.90;;;;;;;23.26;44.67;95615.75;4993029;28;20034;-67
2022/06/02 07:08:33;;;;;;;1999.90;999.90;;;;;;;22.27;47.16;95610.75;4990514;28;20450;-67
2022/06/02 07:12:50;;;;;;;1999.90;999.90;;;;;;;23.19;46.10;95610.28;4991174;28;20045;-68
2022/06/02 07:14:22;;;;;;;1999.90;999.90;;;;;;;23.72;43.79;95622.75;4973061;28;20054;-68
2022/06/02 07:16:55;;;;;;;1999.90;999.90;;;;;;;23.90;44.00;95609.28;4971831;28;20027;-67
2022/06/02 07:19:46;;;;;;;1999.90;999.90;;;;;;;24.38;42.96;95615.44;4972733;28;20106;-67
2022/06/02 07:22:24;;;;;;;1999.90;999.90;;;;;;;24.83;42.19;95619.50;4981159;28;20108;-67
2022/06/02 07:25:15;;;;;;;1999.90;999.90;;;;;;;22.40;46.49;95624.84;4992237;28;20266;-67
2022/06/02 07:27:50;;;;;;;1999.90;999.90;;;;;;;21.80;48.83;95622.03;4992270;28;20097;-68
2022/06/02 07:30:47;;;;;;;1999.90;999.90;;;;;;;22.94;46.19;95612.72;4991227;28;20117;-68
2022/06/02 07:33:50;;;;;;;1999.90;999.90;;;;;;;23.25;45.09;95614.19;4991461;28;20023;-67
2022/06/02 07:37:00;;;;;;;1999.90;999.90;;;;;;;23.74;43.90;95618.50;4989938;28;20030;-68
2022/06/02 07:39:36;;;;;;;1999.90;999.90;;;;;;;24.63;42.53;95621.75;4950583;29;20038;-67
2022/06/02 07:42:16;;;;;;;1999.90;999.90;;;;;;;25.11;41.75;95612.59;4948003;28;20043;-68
2022/06/02 07:45:18;;;;;;;1999.90;999.90;;;;;;;25.58;40.73;95594.34;4976427;28;20042;-67
2022/06/02 07:47:59;;;;;;;;;;;;;;;26.04;40.63;95623.53;4990490;28;20034;-69
2022/06/02 07:50:35;;;;;;;1999.90;999.90;;;;;;;26.30;39.58;95614.13;4991920;28;20011;-68
2022/06/02 07:53:20;;;;;;;1999.90;999.90;;;;;;;26.59;38.88;95621.06;4990542;28;20034;-68
2022/06/02 07:56:19;;;;;;;1999.90;999.90;;;;;;;27.37;37.73;95614.44;4991473;28;20026;-68
2022/06/02 07:59:15;;;;;;;1999.90;999.90;;;;;;;28.12;36.48;95619.31;4987144;28;20480;-68
2022/06/02 08:02:10;;;;;;;1999.90;999.90;;;;;;;28.51;34.74;95612.69;4971270;28;20542;-68
2022/06/02 08:04:47;;;;;;;1999.90;999.90;;;;;;;26.98;35.68;95624.81;4972695;28;20531;-68
2022/06/02 08:07:24;;;;;;;1999.90;999.90;;;;;;;26.39;37.50;95615.25;4983274;28;20113;-69
2022/06/02 08:10:11;;;;;;;1999.90;999.90;;;;;;;24.51;40.91;95626.75;4990306;28;20375;-68
2022/06/02 08:12:40;;;;;;;1999.90;999.90;;;;;;;25.44;39.82;95627.03;4991718;28;20061;-68
2022/06/02 08:15:41;;;;;;;1999.90;999.90;;;;;;;25.14;40.39;95630.88;4991704;28;20034;-68
2022/06/02 08:18:25;;;;;;;1999.90;999.90;;;;;;;23.25;43.51;95627.78;4988128;28;20023;-69
2022/06/02 08:21:15;;;;;;;1999.90;999.90;;;;;;;24.03;42.99;95633.06;4991395;28;20022;-68
2022/06/02 08:24:14;;;;;;;1999.90;999.90;;;;;;;24.71;41.43;95638.09;5005895;28;20031;-68
2022/06/02 08:27:01;;;;;;;1999.90;999.90;;;;;;;26.19;38.87;95631.28;4989125;28;20407;-68
2022/06/02 08:29:53;;;;;;;1999.90;999.90;;;;;;;25.83;37.75;95633.28;5004532;28;20110;-69
2022/06/02 08:32:51;;;;;;;1999.90;999.90;;;;;;;25.39;38.14;95636.38;4988108;28;20034;-68
2022/06/02 08:35:25;;;;;;;1999.90;999.90;;;;;;;24.74;40.27;95638.13;4990046;28;20217;-68
2022/06/02 08:37:59;;;;;;;1999.90;999.90;;;;;;;26.90;37.01;95643.94;4987278;28;20038;-68
2022/06/02 08:40:49;;;;;;;1999.90;999.90;;;;;;;27.93;35.52;95636.28;4987121;28;20030;-69
2022/06/02 08:43:21;;;;;;;1999.90;999.90;;;;;;;28.88;33.53;95643.91;4988854;28;20045;-68
2022/06/02 08:46:02;;;;;;;;;;;;;;;29.20;32.03;95641.53;4987166;28;20030;-69
2022/06/02 08:48:48;;;;;;;1999.90;999.90;;;;;;;29.62;31.49;95641.34;4990151;28;19917;-68
2022/06/02 08:51:26;;;;;;;1999.90;999.90;;;;;;;28.72;31.74;95628.84;4985813;28;20041;-69
2022/06/02 08:54:23;;;;;;;1999.90;999.90;;;;;;;28.29;32.67;95638.69;5004703;28;20395;-68
2022/06/02 08:57:14;;;;;;;1999.90;999.90;;;;;;;26.13;36.71;95643.00;4989098;28;20053;-68
2022/06/02 08:59:57;;;;;;;1999.90;999.90;;;;;;;27.38;34.40;95643.34;4970510;28;20117;-68
2022/06/02 09:02:31;;;;;;;1999.90;999.90;;;;;;;28.26;33.37;95645.75;4989946;28;20032;-69
2022/06/02 09:05:33;;;;;;;1999.90;999.90;;;;;;;29.21;32.13;95645.81;4986194;28;20073;-69
2022/06/02 09:08:17;;;;;;;;;;;;;;;30.01;31.12;95643.47;4981119;28;20026;-69
2022/06/02 09:11:01;;;;;;;1999.90;999.90;;;;;;;30.12;30.02;95640.53;5002367;28;19924;-69
2022/06/02 09:14:02;;;;;;;1999.90;999.90;;;;;;;29.81;29.80;95650.84;4987325;28;20041;-68
2022/06/02 09:16:44;;;;;;;1999.90;999.90;;;;;;;29.47;30.37;95644.28;4977947;28;20029;-68
2022/06/02 09:19:35;;;;;;;1999.90;999.90;;;;;;;27.81;32.73;95647.72;4989078;28;20038;-68
2022/06/02 09:22:09;;;;;;;1999.90;999.90;;;;;;;27.17;34.68;95638.75;4988684;28;20054;-69
2022/06/02 09:25:02;;;;;;;1999.90;999.90;;;;;;;26.11;36.59;95653.53;4986483;28;20027;-68
2022/06/02 09:27:48;;;;;;;1999.90;999.90;;;;;;;26.22;37.31;95648.06;4995944;28;20026;-68
2022/06/02 09:30:17;;;;;;;1999.90;999.90;;;;;;;25.32;38.46;95658.13;4989234;28;20030;-68
2022/06/02 09:33:33;;;;;;;1999.90;999.90;;;;;;;26.57;36.69;95655.41;4989843;28;20146;-69
2022/06/02 09:36:21;;;;;;;1999.90;999.90;;;;;;;26.13;36.77;95651.94;4970906;28;20038;-68
2022/06/02 09:38:55;;;;;;;1999.90;999.90;;;;;;;25.78;37.23;95655.47;4969615;28;20046;-68
2022/06/02 09:41:43;;;;;;;1999.90;999.90;;;;;;;25.27;38.20;95656.56;4993068;28;20452;-68
2022/06/02 09:44:29;;;;;;;1999.90;999.90;;;;;;;27.23;35.02;95665.66;4994290;28;20022;-69
2022/06/02 09:47:26;;;;;;;1999.90;999.90;;;;;;;28.99;32.04;95658.28;4992291;28;20390;-68
2022/06/02 09:50:02;;;;;;;1999.90;999.90;;;;;;;30.27;30.24;95655.56;4992837;28;20431;-68
2022/06/02 09:52:54;;;;;;;1999.90;999.90;;;;;;;30.75;29.02;95646.06;5009222;28;20022;-71
2022/06/02 09:56:00;;;;;;;1999.90;999.90;;;;;;;30.22;28.47;95653.31;4985837;28;20026;-72
2022/06/02 09:58:28;;;;;;;1999.90;999.90;;;;;;;30.23;29.27;95660.34;4992565;28;20092;-69
2022/06/02 10:01:12;;;;;;;1999.90;999.90;;;;;;;29.53;29.87;95658.28;4992830;28;20022;-69
2022/06/02 10:03:59;;;;;;;1999.90;999.90;;;;;;;29.71;29.58;95642.38;4992401;28;20088;-71
2022/06/02 10:06:58;;;;;;;1999.90;999.90;;;;;;;29.46;29.76;95648.22;4994024;28;20072;-70
2022/06/02 10:10:01;;;;;;;1999.90;999.90;;;;;;;28.73;30.80;95648.78;4993582;28;20065;-69
2022/06/02 10:12:58;;;;;;;1999.90;999.90;;;;;;;28.40;31.81;95650.31;4992763;28;20034;-71
2022/06/02 10:15:35;;;;;;;1999.90;999.90;;;;;;;28.88;30.95;95650.16;4992702;28;20700;-72
2022/06/02 10:18:25;;;;;;;1999.90;999.90;;;;;;;29.37;30.42;95642.47;4992614;28;20058;-72
2022/06/02 10:20:50;;;;;;;1999.90;999.90;;;;;;;30.02;29.59;95636.78;5007115;28;20030;-71
2022/06/02 10:23:31;;;;;;;1999.90;999.90;;;;;;;30.16;29.20;95630.31;4974161;28;20109;-70
2022/06/02 10:26:17;;;;;;;1999.90;999.90;;;;;;;30.26;29.58;95643.06;4983804;28;20031;-72
2022/06/02 10:29:21;;;;;;;1999.90;999.90;;;;;;;28.37;31.54;95643.72;4990941;28;20502;-69
2022/06/02 10:32:32;;;;;;;1999.90;999.90;;;;;;;28.42;30.55;95635.06;4972921;28;20038;-69
2022/06/02 10:35:40;;;;;;;1999.90;999.90;;;;;;;28.40;30.89;95645.59;4984996;28;20049;-69
2022/06/02 10:38:24;;;;;;;1999.90;999.90;;;;;;;27.17;33.28;95637.97;4991201;28;20026;-70
2022/06/02 10:41:19;;;;;;;1999.90;999.90;;;;;;;28.94;31.33;95645.81;4986493;28;20045;-71
2022/06/02 10:44:09;;;;;;;1999.90;999.90;;;;;;;28.46;30.40;95648.72;4991002;28;20070;-69
2022/06/02 10:46:53;;;;;;;1999.90;999.90;;;;;;;27.75;32.49;95636.44;4985709;28;20030;-69
2022/06/02 10:49:26;;;;;;;1999.90;999.90;;;;;;;28.80;31.46;95648.69;5003851;28;20041;-69
2022/06/02 10:52:16;;;;;;;1999.90;999.90;;;;;;;29.29;30.17;95648.47;4989851;28;20038;-69
2022/06/02 10:54:59;;;;;;;1999.90;999.90;;;;;;;29.44;29.86;95647.88;4988820;28;20480;-70
2022/06/02 10:57:49;;;;;;;1999.90;999.90;;;;;;;29.49;29.83;95650.13;4992225;28;20038;-70
2022/06/02 11:00:23;;;;;;;1999.90;999.90;;;;;;;30.49;29.66;95645.75;5002451;28;20403;-70
2022/06/02 11:03:28;;;;;;;1999.90;999.90;;;;;;;31.03;27.33;95656.47;4989442;28;20168;-69
2022/06/02 11:06:15;;;;;;;1999.90;999.90;;;;;;;31.20;26.94;95643.56;4991600;28;20402;-67
2022/06/02 11:08:57;;;;;;;1999.90;999.90;;;;;;;31.49;26.34;95627.22;4992446;28;20081;-67
2022/06/02 11:12:08;;;;;;;1999.90;999.90;;;;;;;31.89;26.35;95638.09;4990578;28;20061;-66
2022/06/02 11:14:51;;;;;;;1999.90;999.90;;;;;;;31.17;26.61;95636.19;4991565;28;20133;-66
2022/06/02 11:17:35;;;;;;;1999.90;999.90;;;;;;;31.97;26.01;95639.44;4991812;28;20038;-67
2022/06/02 11:20:25;;;;;;;1999.90;999.90;;;;;;;32.27;26.05;95630.03;4992012;28;20022;-67
2022/06/02 11:23:24;;;;;;;1999.90;999.90;;;;;;;32.22;26.63;95605.00;4990345;28;20475;-67
2022/06/02 11:26:17;;;;;;;1999.90;999.90;;;;;;;30.87;27.44;95625.44;4991083;28;20156;-66
2022/06/02 11:29:04;;;;;;;1999.90;999.90;;;;;;;31.03;26.72;95623.50;4991049;28;20039;-67
2022/06/02 11:32:10;;;;;;;1999.90;999.90;;;;;;;30.38;26.79;95565.59;4990265;28;20022;-67
2022/06/02 11:34:52;;;;;;;1999.90;999.90;;;;;;;30.35;27.95;95604.06;4992443;28;20074;-67
2022/06/02 11:37:45;;;;;;;1999.90;999.90;;;;;;;29.80;28.99;95608.94;4991409;28;20038;-67
2022/06/02 11:40:29;;;;;;;1999.90;999.90;;;;;;;31.04;28.71;95605.81;4991592;28;20532;-67
2022/06/02 11:43:12;;;;;;;1999.90;999.90;;;;;;;30.81;28.11;95600.41;4992181;28;20085;-67
2022/06/02 11:45:50;;;;;;;1999.90;999.90;;;;;;;30.40;27.49;95612.59;4990997;28;20113;-67
2022/06/02 11:48:43;;;;;;;1999.90;999.90;;;;;;;29.69;29.12;95589.94;4991319;28;20205;-67
2022/06/02 11:51:24;;;;;;;1999.90;999.90;;;;;;;30.02;29.33;95606.59;4992008;28;20467;-67
2022/06/02 11:54:26;;;;;;;1999.90;999.90;;;;;;;28.47;31.13;95611.94;4991705;28;20033;-67
2022/06/02 11:57:16;;;;;;;1999.90;999.90;;;;;;;29.29;29.75;95615.59;5006222;28;20461;-67
2022/06/02 12:00:02;;;;;;;1999.90;999.90;;;;;;;28.45;31.34;95615.06;4991434;28;20491;-67
2022/06/02 12:02:39;;;;;;;1999.90;999.90;;;;;;;26.85;33.72;95611.59;4990026;28;20032;-67
2022/06/02 12:05:35;;;;;;;1999.90;999.90;;;;;;;27.73;32.90;95608.72;4991970;28;20030;-67
2022/06/02 12:08:31;;;;;;;1999.90;999.90;;;;;;;27.98;32.04;95622.19;4990417;28;20093;-67
2022/06/02 12:11:14;;;;;;;1999.90;999.90;;;;;;;27.66;32.84;95614.22;4991694;28;20472;-67
2022/06/02 12:14:24;;;;;;;1999.90;999.90;;;;;;;27.29;33.71;95612.94;4991570;28;20128;-67
2022/06/02 12:17:01;;;;;;;1999.90;999.90;;;;;;;27.25;33.93;95614.91;4987943;28;20113;-67
2022/06/02 12:19:54;;;;;;;1999.90;999.90;;;;;;;26.55;35.60;95617.56;5005544;28;20026;-67
2022/06/02 12:22:37;;;;;;;1999.90;999.90;;;;;;;27.63;32.79;95604.88;4991159;28;20383;-66